createdAt,value
2019-04-03T04:03:52.114Z,8.722534
2019-04-03T04:07:20.173Z,8.752747
2019-04-03T04:10:47.860Z,8.752747
2019-04-03T04:14:20.765Z,8.742676
2019-04-03T04:17:49.942Z,8.682251
2019-04-03T04:21:18.253Z,8.652039
2019-04-03T04:24:46.068Z,8.652039
2019-04-03T04:28:13.929Z,8.601685
2019-04-03T04:31:43.238Z,8.561401
2019-04-03T04:35:11.496Z,8.571472
2019-04-03T04:38:40.322Z,8.601685
2019-04-03T04:42:08.165Z,8.652039
2019-04-03T04:45:35.974Z,8.702393
2019-04-03T04:49:05.815Z,8.742676
2019-04-03T04:52:33.666Z,8.752747
2019-04-03T04:56:01.492Z,8.813171
2019-04-03T04:59:31.368Z,8.833313
2019-04-03T05:03:02.097Z,8.863525
2019-04-03T05:06:30.008Z,8.964233
2019-04-03T05:09:57.981Z,9.014587
2019-04-03T05:13:27.579Z,8.994446
2019-04-03T05:16:55.807Z,8.984375
2019-04-03T05:20:23.279Z,9.014587
2019-04-03T05:23:51.104Z,9.075012
2019-04-03T05:27:23.881Z,9.115295
2019-04-03T05:30:52.692Z,9.145508
2019-04-03T05:34:20.531Z,9.226074
2019-04-03T05:37:48.940Z,9.236145
2019-04-03T05:41:18.316Z,9.266357
2019-04-03T05:44:46.980Z,9.29657
2019-04-03T05:48:17.575Z,9.336853
2019-04-03T05:51:44.632Z,9.467773
2019-04-03T05:55:12.446Z,9.508057
2019-04-03T05:58:40.289Z,9.598694
2019-04-03T06:02:16.912Z,9.669189
2019-04-03T06:05:45.839Z,9.749756
2019-04-03T06:09:13.703Z,9.840393
2019-04-03T06:12:45.313Z,9.941101
2019-04-03T06:16:12.349Z,10.061951
2019-04-03T06:19:43.313Z,10.102234
2019-04-03T06:23:10.952Z,10.102234
2019-04-03T06:26:38.901Z,10.172729
2019-04-03T06:30:08.594Z,10.364075
2019-04-03T06:33:36.701Z,10.484924
2019-04-03T06:37:04.310Z,10.615845
2019-04-03T06:40:32.670Z,10.615845
2019-04-03T06:44:01.997Z,10.615845
2019-04-03T06:47:30.016Z,10.696411
2019-04-03T06:50:59.601Z,10.605774
2019-04-03T06:54:27.420Z,10.565491
2019-04-03T06:57:57.374Z,10.595703
2019-04-03T07:01:26.039Z,10.646057
2019-04-03T07:04:53.874Z,10.515137
2019-04-03T07:08:30.866Z,10.575562
2019-04-03T07:11:58.437Z,10.615845
2019-04-03T07:15:26.339Z,10.605774
2019-04-03T07:18:54.074Z,10.726624
2019-04-03T07:22:21.949Z,10.787048
2019-04-03T07:25:51.714Z,10.847473
2019-04-03T07:29:20.738Z,10.968323
2019-04-03T07:32:50.344Z,11.048889
2019-04-03T07:36:20.180Z,11.109314
2019-04-03T07:39:49.934Z,11.220093
2019-04-03T07:43:17.816Z,11.371155
2019-04-03T07:46:47.870Z,11.552429
2019-04-03T07:50:18.881Z,11.592712
2019-04-03T07:53:46.531Z,11.794128
2019-04-03T07:57:16.856Z,11.914978
2019-04-03T08:00:44.178Z,12.06604
2019-04-03T08:04:12.023Z,12.247314
2019-04-03T08:07:42.817Z,12.287598
2019-04-03T08:11:10.646Z,12.378235
2019-04-03T08:14:41.093Z,12.428589
2019-04-03T08:18:09.511Z,12.549438
2019-04-03T08:21:38.089Z,12.680359
2019-04-03T08:25:05.925Z,12.760925
2019-04-03T08:28:36.734Z,12.831421
2019-04-03T08:32:04.844Z,12.911987
2019-04-03T08:35:32.777Z,13.204041
2019-04-03T08:39:02.233Z,13.465881
2019-04-03T08:42:32.354Z,13.647156
2019-04-03T08:45:58.867Z,13.747864
2019-04-03T08:49:26.737Z,13.747864
2019-04-03T08:52:54.516Z,13.788147
2019-04-03T08:56:22.391Z,13.747864
2019-04-03T08:59:50.165Z,13.979492
2019-04-03T09:03:19.001Z,14.110413
2019-04-03T09:06:46.856Z,14.130554
2019-04-03T09:10:17.931Z,14.160767
2019-04-03T09:13:45.534Z,14.190979
2019-04-03T09:17:14.365Z,14.0802
2019-04-03T09:20:43.356Z,14.110413
2019-04-03T09:24:10.991Z,14.211121
2019-04-03T09:27:40.291Z,14.483032
2019-04-03T09:31:07.782Z,14.694519
2019-04-03T09:34:35.504Z,14.946289
2019-04-03T09:38:03.336Z,15.288696
2019-04-03T09:41:33.135Z,15.228271
2019-04-03T09:45:00.956Z,15.026855
2019-04-03T09:48:28.834Z,15.077209
2019-04-03T09:51:58.632Z,15.318909
2019-04-03T09:55:26.454Z,15.399475
2019-04-03T09:58:59.233Z,15.560608
2019-04-03T10:02:30.028Z,15.409546
2019-04-03T10:05:58.158Z,15.268555
2019-04-03T10:09:26.696Z,15.409546
2019-04-03T10:12:54.663Z,15.399475
2019-04-03T10:16:22.347Z,15.953369
2019-04-03T10:19:50.174Z,16.033936
2019-04-03T10:23:18.004Z,15.953369
2019-04-03T10:26:47.079Z,16.618042
2019-04-03T10:30:16.569Z,17.020874
2019-04-03T10:33:46.082Z,16.950378
2019-04-03T10:37:15.349Z,17.242432
2019-04-03T10:40:42.759Z,18.027954
2019-04-03T10:44:10.596Z,19.226379
2019-04-03T10:47:41.928Z,19.598999
2019-04-03T10:51:09.985Z,20.052185
2019-04-03T10:54:38.391Z,20.273743
2019-04-03T10:58:08.037Z,20.253601
2019-04-03T11:01:35.630Z,20.99884
2019-04-03T11:05:05.150Z,21.25061
2019-04-03T11:08:32.941Z,21.139832
2019-04-03T11:12:01.858Z,21.75415
2019-04-03T11:15:31.922Z,21.62323
2019-04-03T11:19:04.666Z,21.713867
2019-04-03T11:22:40.203Z,21.955566
2019-04-03T11:26:06.440Z,22.217407
2019-04-03T11:29:34.288Z,22.952576
2019-04-03T11:33:04.100Z,23.38562
2019-04-03T11:36:33.929Z,22.912292
2019-04-03T11:40:04.843Z,21.905212
2019-04-03T11:43:32.339Z,21.693726
2019-04-03T11:46:59.511Z,22.12677
2019-04-03T11:50:27.675Z,22.086487
2019-04-03T11:53:55.406Z,21.673584
2019-04-03T11:57:23.126Z,21.452026
2019-04-03T12:00:52.228Z,21.300964
2019-04-03T12:04:20.260Z,20.706787
2019-04-03T12:07:48.353Z,20.676575
2019-04-03T12:11:18.487Z,20.726929
2019-04-03T12:14:46.918Z,20.626221
2019-04-03T12:18:17.391Z,21.129761
2019-04-03T12:21:45.531Z,21.079407
2019-04-03T12:25:15.251Z,21.099548
2019-04-03T12:28:42.975Z,20.606079
2019-04-03T12:32:12.807Z,20.787354
2019-04-03T12:35:42.834Z,20.646362
2019-04-03T12:39:10.514Z,20.555725
2019-04-03T12:42:38.379Z,20.74707
2019-04-03T12:46:06.308Z,20.36438
2019-04-03T12:49:34.126Z,20.193176
2019-04-03T12:53:02.119Z,20.173035
2019-04-03T12:56:30.880Z,20.122681
2019-04-03T12:59:58.834Z,20.344238
2019-04-03T13:03:26.745Z,20.021973
2019-04-03T13:06:57.545Z,20.193176
2019-04-03T13:10:39.058Z,20.142822
2019-04-03T13:14:03.701Z,20.324097
2019-04-03T13:17:32.332Z,19.568787
2019-04-03T13:21:00.489Z,19.125671
2019-04-03T13:24:30.958Z,19.186096
2019-04-03T13:28:02.673Z,19.035034
2019-04-03T13:31:30.495Z,19.377441
2019-04-03T13:34:59.470Z,19.23645
2019-04-03T13:38:29.961Z,19.014893
2019-04-03T13:41:57.202Z,18.571777
2019-04-03T13:45:24.983Z,18.511353
2019-04-03T13:48:54.917Z,18.561707
2019-04-03T13:52:22.681Z,18.632202
2019-04-03T13:55:55.852Z,18.581848
2019-04-03T13:59:25.733Z,18.521423
2019-04-03T14:02:55.928Z,19.065247
2019-04-03T14:06:23.064Z,19.216309
2019-04-03T14:09:54.635Z,19.216309
2019-04-03T14:13:20.723Z,18.672485
2019-04-03T14:16:48.864Z,18.430786
2019-04-03T14:20:16.506Z,18.108521
2019-04-03T14:23:46.431Z,17.866821
2019-04-03T14:27:21.785Z,17.836609
2019-04-03T14:30:48.937Z,17.937317
2019-04-03T14:34:16.810Z,17.866821
2019-04-03T14:37:44.646Z,17.836609
2019-04-03T14:41:12.867Z,17.866821
2019-04-03T14:44:45.464Z,18.007812
2019-04-03T14:48:12.241Z,18.460999
2019-04-03T14:51:41.548Z,18.571777
2019-04-03T14:55:17.567Z,18.702698
2019-04-03T14:58:44.724Z,18.712769
2019-04-03T15:02:12.694Z,18.168945
2019-04-03T15:05:43.892Z,17.927246
2019-04-03T15:09:10.245Z,17.715759
2019-04-03T15:12:40.936Z,17.715759
2019-04-03T15:16:08.827Z,18.581848
2019-04-03T15:19:36.919Z,18.390503
2019-04-03T15:23:06.464Z,18.259583
2019-04-03T15:26:34.312Z,18.793335
2019-04-03T15:30:02.171Z,18.742981
2019-04-03T15:33:33.101Z,18.22937
2019-04-03T15:37:01.912Z,18.007812
2019-04-03T15:40:32.843Z,18.360291
2019-04-03T15:44:00.561Z,18.299866
2019-04-03T15:47:34.873Z,17.544556
2019-04-03T15:51:05.495Z,18.309937
2019-04-03T15:54:33.782Z,18.85376
2019-04-03T15:58:01.610Z,18.22937
2019-04-03T16:01:29.952Z,17.524414
2019-04-03T16:04:59.401Z,16.879883
2019-04-03T16:08:27.708Z,16.487122
2019-04-03T16:11:55.221Z,16.174927
2019-04-03T16:15:27.825Z,16.054077
2019-04-03T16:18:55.920Z,15.993652
2019-04-03T16:22:23.855Z,15.772095
2019-04-03T16:25:54.413Z,15.621033
2019-04-03T16:29:22.216Z,15.469971
2019-04-03T16:32:52.030Z,15.399475
2019-04-03T16:36:24.791Z,15.248413
2019-04-03T16:39:52.632Z,15.167847
2019-04-03T16:43:22.103Z,15.077209
2019-04-03T16:46:50.287Z,15.046997
2019-04-03T16:50:18.113Z,14.916077
2019-04-03T16:53:49.442Z,14.895935
2019-04-03T16:57:16.738Z,14.845581
2019-04-03T17:00:46.595Z,14.775085
2019-04-03T17:04:24.548Z,14.714661
2019-04-03T17:07:52.978Z,14.694519
2019-04-03T17:11:20.371Z,14.644165
2019-04-03T17:14:48.155Z,14.613953
2019-04-03T17:18:18.276Z,14.553528
2019-04-03T17:26:59.452Z,14.029846
2019-04-03T17:30:28.725Z,13.757935
2019-04-03T17:33:57.190Z,13.546448
2019-04-03T17:37:30.191Z,13.345032
2019-04-03T17:40:59.754Z,13.133545
2019-04-03T17:44:29.864Z,12.952271
2019-04-03T17:48:00.034Z,12.811279
2019-04-03T17:51:31.755Z,12.831421
2019-04-03T17:55:02.243Z,12.811279
2019-04-03T17:58:33.431Z,12.831421
2019-04-03T18:02:03.101Z,12.710571
2019-04-03T18:05:33.365Z,12.589722
2019-04-03T18:09:03.964Z,12.358093
2019-04-03T18:12:33.946Z,12.247314
2019-04-03T18:16:04.846Z,12.076111
2019-04-03T18:19:37.557Z,11.995544
2019-04-03T18:23:10.404Z,11.894836
2019-04-03T18:26:40.844Z,11.844482
2019-04-03T18:30:12.666Z,11.733704
2019-04-03T18:33:42.337Z,11.69342
2019-04-03T18:37:13.298Z,11.592712
2019-04-03T18:40:45.440Z,11.5625
2019-04-03T18:47:15.979Z,11.461792
2019-04-03T18:47:51.076Z,11.401367
2019-04-03T18:51:21.063Z,11.411438
2019-04-03T18:54:51.001Z,11.371155
2019-04-03T18:58:22.304Z,11.300659
2019-04-03T19:01:52.794Z,11.17981
2019-04-03T19:05:23.668Z,11.119385
2019-04-03T19:08:53.568Z,11.038818
2019-04-03T19:12:34.852Z,10.998535
2019-04-03T19:16:01.971Z,10.92804
2019-04-03T19:19:30.374Z,10.756836
2019-04-03T19:23:02.722Z,10.696411
2019-04-03T19:26:34.104Z,10.666199
2019-04-03T19:30:06.735Z,10.666199
2019-04-03T19:33:35.809Z,10.776978
2019-04-03T19:37:06.744Z,10.907898
2019-04-03T19:40:36.713Z,11.008606
2019-04-03T19:44:08.578Z,11.048889
2019-04-03T19:47:39.459Z,11.079102
2019-04-03T19:51:10.380Z,11.17981
2019-04-03T19:54:41.318Z,11.361084
2019-04-03T19:58:12.215Z,11.5625
2019-04-03T20:01:42.106Z,11.542358
2019-04-03T20:05:13.047Z,11.542358
2019-04-03T20:08:44.904Z,11.461792
2019-04-03T20:12:14.861Z,11.582642
2019-04-03T20:15:44.747Z,11.552429
2019-04-03T20:19:15.654Z,11.522217
2019-04-03T20:22:46.593Z,11.542358
2019-04-03T20:26:16.954Z,11.542358
2019-04-03T20:29:46.464Z,11.512146
2019-04-03T20:33:16.355Z,11.43158
2019-04-03T20:36:46.271Z,11.411438
2019-04-03T20:40:19.165Z,11.401367
2019-04-03T20:43:49.134Z,11.381226
2019-04-03T20:47:18.981Z,11.31073
2019-04-03T20:50:48.875Z,11.250305
2019-04-03T20:54:19.139Z,11.250305
2019-04-03T20:57:55.636Z,11.220093
2019-04-03T21:01:22.742Z,11.17981
2019-04-03T21:04:52.767Z,11.089172
2019-04-03T21:08:24.749Z,11.079102
2019-04-03T21:11:56.604Z,11.089172
2019-04-03T21:15:26.519Z,10.978394
2019-04-03T21:18:56.462Z,10.998535
2019-04-03T21:22:29.448Z,10.93811
2019-04-03T21:25:58.294Z,10.857544
2019-04-03T21:29:28.227Z,10.756836
2019-04-03T21:32:59.844Z,10.646057
2019-04-03T21:36:29.090Z,10.43457
2019-04-03T21:40:03.125Z,10.213013
2019-04-03T21:43:33.903Z,10.092163
2019-04-03T21:47:03.771Z,10.061951
2019-04-03T21:50:33.691Z,10.021667
2019-04-03T21:54:03.603Z,9.93103
2019-04-03T21:57:33.557Z,9.870605
